createdAt,value
2018-01-25T00:00:59.178Z,2.50
2018-01-25T00:01:59.198Z,2.20
2018-01-25T00:02:59.214Z,2.20
2018-01-25T00:03:59.231Z,1.90
2018-01-25T00:04:59.255Z,1.90
2018-01-25T00:05:59.274Z,1.90
2018-01-25T00:06:59.294Z,2.10
2018-01-25T00:07:59.311Z,2.20
2018-01-25T00:08:59.333Z,2.00
2018-01-25T00:09:59.353Z,2.10
2018-01-25T00:10:59.372Z,1.90
2018-01-25T00:11:59.387Z,1.90
2018-01-25T00:12:59.410Z,1.70
2018-01-25T00:13:59.424Z,1.90
2018-01-25T00:14:59.445Z,1.70
2018-01-25T00:15:59.468Z,1.60
2018-01-25T00:16:59.483Z,1.70
2018-01-25T00:17:59.504Z,1.60
2018-01-25T00:18:59.522Z,1.70
2018-01-25T00:19:59.541Z,1.60
2018-01-25T00:20:59.560Z,1.70
2018-01-25T00:21:59.579Z,1.20
2018-01-25T00:22:59.598Z,2.00
2018-01-25T00:23:59.614Z,1.40
2018-01-25T00:24:59.634Z,1.70
2018-01-25T00:25:59.652Z,1.50
2018-01-25T00:26:59.673Z,1.70
2018-01-25T00:27:59.691Z,2.00
2018-01-25T00:28:59.713Z,1.50
2018-01-25T00:29:59.729Z,1.60
2018-01-25T00:30:59.748Z,1.40
2018-01-25T00:31:59.764Z,1.50
2018-01-25T00:32:59.786Z,1.70
2018-01-25T00:33:59.805Z,1.60
2018-01-25T00:34:59.823Z,1.40
2018-01-25T00:35:59.838Z,1.60
2018-01-25T00:36:59.859Z,1.60
2018-01-25T00:37:59.879Z,1.70
2018-01-25T00:38:59.899Z,1.60
2018-01-25T00:39:59.916Z,1.60
2018-01-25T00:40:59.935Z,1.70
2018-01-25T00:41:59.954Z,1.60
2018-01-25T00:42:59.971Z,1.50
2018-01-25T00:43:59.997Z,1.70
2018-01-25T00:45:00.020Z,1.60
2018-01-25T00:46:00.031Z,1.50
2018-01-25T00:47:00.063Z,1.50
2018-01-25T00:48:00.067Z,1.70
2018-01-25T00:49:00.083Z,1.60
2018-01-25T00:50:00.104Z,2.80
2018-01-25T00:51:00.122Z,2.10
2018-01-25T00:52:00.139Z,1.80
2018-01-25T00:53:00.160Z,1.60
2018-01-25T00:54:00.179Z,2.70
2018-01-25T00:55:00.198Z,1.60
2018-01-25T00:56:00.212Z,1.70
2018-01-25T00:57:00.233Z,2.10
2018-01-25T00:58:00.252Z,2.20
2018-01-25T00:59:00.269Z,1.90
2018-01-25T01:00:00.288Z,2.10
2018-01-25T01:01:00.308Z,1.70
2018-01-25T01:02:30.792Z,1.70
2018-01-25T01:03:02.777Z,2.20
2018-01-25T01:04:02.777Z,2.00
2018-01-25T01:05:01.404Z,1.80
2018-01-25T01:06:00.489Z,1.60
2018-01-25T01:07:00.477Z,2.30
2018-01-25T01:08:00.436Z,2.00
2018-01-25T01:09:00.455Z,1.80
2018-01-25T01:10:00.475Z,2.80
2018-01-25T01:11:00.493Z,1.90
2018-01-25T01:12:00.512Z,1.90
2018-01-25T01:13:00.528Z,1.60
2018-01-25T01:14:00.547Z,1.80
2018-01-25T01:15:00.566Z,2.00
2018-01-25T01:16:00.585Z,2.40
2018-01-25T01:17:00.601Z,1.80
2018-01-25T01:18:00.620Z,1.80
2018-01-25T01:19:00.641Z,1.60
2018-01-25T01:20:00.657Z,1.70
2018-01-25T01:21:00.676Z,2.60
2018-01-25T01:22:00.693Z,2.00
2018-01-25T01:23:00.713Z,1.60
2018-01-25T01:24:00.731Z,1.30
2018-01-25T01:25:00.748Z,1.90
2018-01-25T01:26:00.766Z,2.00
2018-01-25T01:27:00.777Z,1.40
2018-01-25T01:28:00.805Z,1.60
2018-01-25T01:29:00.824Z,1.70
2018-01-25T01:30:00.838Z,1.70
2018-01-25T01:31:00.858Z,1.40
2018-01-25T01:32:00.876Z,1.70
2018-01-25T01:33:00.893Z,1.60
2018-01-25T01:34:00.910Z,2.60
2018-01-25T01:35:00.927Z,1.50
2018-01-25T01:36:00.945Z,3.10
2018-01-25T01:37:00.967Z,2.00
2018-01-25T01:38:00.986Z,1.20
2018-01-25T01:39:01.002Z,2.00
2018-01-25T01:40:01.019Z,1.90
2018-01-25T01:41:01.041Z,1.40
2018-01-25T01:42:01.101Z,1.70
2018-01-25T01:43:01.075Z,1.30
2018-01-25T01:44:01.093Z,1.60
2018-01-25T01:45:01.111Z,1.20
2018-01-25T01:46:01.127Z,1.80
2018-01-25T01:47:01.146Z,1.30
2018-01-25T01:48:01.165Z,1.80
2018-01-25T01:49:01.184Z,1.80
2018-01-25T01:50:01.202Z,2.40
2018-01-25T01:51:01.215Z,1.80
2018-01-25T01:52:01.236Z,2.30
2018-01-25T01:53:01.255Z,2.80
2018-01-25T01:54:01.277Z,3.30
2018-01-25T01:55:01.293Z,3.60
2018-01-25T01:56:01.306Z,4.40
2018-01-25T01:57:01.330Z,5.00
2018-01-25T01:58:01.346Z,6.60
2018-01-25T01:59:01.365Z,5.40
2018-01-25T02:00:01.377Z,5.90
2018-01-25T02:01:01.400Z,5.70
2018-01-25T02:02:01.417Z,6.10
2018-01-25T02:03:01.436Z,7.10
2018-01-25T02:04:01.455Z,7.90
2018-01-25T02:05:01.473Z,7.00
2018-01-25T02:06:01.488Z,5.80
2018-01-25T02:07:01.511Z,5.90
2018-01-25T02:08:01.530Z,5.60
2018-01-25T02:09:01.553Z,4.80
2018-01-25T02:10:01.563Z,5.00
2018-01-25T02:11:01.583Z,5.60
2018-01-25T02:12:01.604Z,3.90
2018-01-25T02:13:01.619Z,2.90
2018-01-25T02:14:01.682Z,3.70
2018-01-25T02:15:01.653Z,3.40
2018-01-25T02:16:01.672Z,2.30
2018-01-25T02:17:01.691Z,2.50
2018-01-25T02:18:01.710Z,2.40
2018-01-25T02:19:01.728Z,2.10
2018-01-25T02:20:01.741Z,1.80
2018-01-25T02:21:01.767Z,2.50
2018-01-25T02:22:01.783Z,2.10
2018-01-25T02:23:01.797Z,2.10
2018-01-25T02:24:01.819Z,2.00
2018-01-25T02:25:01.836Z,2.40
2018-01-25T02:26:01.855Z,2.20
2018-01-25T02:27:01.871Z,2.10
2018-01-25T02:28:01.888Z,2.60
2018-01-25T02:29:01.907Z,2.90
2018-01-25T02:30:01.933Z,2.10
2018-01-25T02:31:01.945Z,2.10
2018-01-25T02:32:01.968Z,2.10
2018-01-25T02:33:01.974Z,2.80
2018-01-25T02:34:02.007Z,2.20
2018-01-25T02:35:02.016Z,2.50
2018-01-25T02:36:02.035Z,1.90
2018-01-25T02:37:02.053Z,2.50
2018-01-25T02:38:02.070Z,1.70
2018-01-25T02:39:02.090Z,2.20
2018-01-25T02:40:02.108Z,4.30
2018-01-25T02:41:02.129Z,3.20
2018-01-25T02:42:02.143Z,2.50
2018-01-25T02:43:02.158Z,2.50
2018-01-25T02:44:02.179Z,1.90
2018-01-25T02:45:02.194Z,1.90
2018-01-25T02:46:02.215Z,2.80
2018-01-25T02:47:02.232Z,4.30
2018-01-25T02:48:02.249Z,2.80
2018-01-25T02:49:02.271Z,2.20
2018-01-25T02:50:02.291Z,2.40
2018-01-25T02:51:02.304Z,3.80
2018-01-25T02:52:02.325Z,2.40
2018-01-25T02:53:02.342Z,2.60
2018-01-25T02:54:02.360Z,2.80
2018-01-25T02:55:02.378Z,3.30
2018-01-25T02:56:02.395Z,3.80
2018-01-25T02:57:02.416Z,2.70
2018-01-25T02:58:02.431Z,3.70
2018-01-25T02:59:02.455Z,3.90
2018-01-25T03:00:02.463Z,2.60
2018-01-25T03:01:02.487Z,3.60
2018-01-25T03:02:02.502Z,2.60
2018-01-25T03:03:02.522Z,3.10
2018-01-25T03:04:02.539Z,3.40
2018-01-25T03:05:02.557Z,3.10
2018-01-25T03:06:02.574Z,3.10
2018-01-25T03:07:02.592Z,3.30
2018-01-25T03:08:02.612Z,2.90
2018-01-25T03:09:02.629Z,3.30
2018-01-25T03:10:02.648Z,2.30
2018-01-25T03:11:02.665Z,3.20
2018-01-25T03:12:02.684Z,2.40
2018-01-25T03:13:02.702Z,2.80
2018-01-25T03:14:02.722Z,3.00
2018-01-25T03:15:02.740Z,4.10
2018-01-25T03:16:02.751Z,3.10
2018-01-25T03:17:02.775Z,3.50
2018-01-25T03:18:02.794Z,4.20
2018-01-25T03:19:02.809Z,2.10
2018-01-25T03:20:02.827Z,3.40
2018-01-25T03:21:02.846Z,3.40
2018-01-25T03:22:02.865Z,2.90
2018-01-25T03:23:02.879Z,1.80
2018-01-25T03:24:02.899Z,4.10
2018-01-25T03:25:02.920Z,4.30
2018-01-25T03:26:02.938Z,2.30
2018-01-25T03:27:02.954Z,1.80
2018-01-25T03:28:02.970Z,3.00
2018-01-25T03:29:02.993Z,3.50
2018-01-25T03:30:03.012Z,2.80
2018-01-25T03:31:03.030Z,4.60
2018-01-25T03:32:03.046Z,2.60
2018-01-25T03:33:03.065Z,3.40
2018-01-25T03:34:03.082Z,3.20
2018-01-25T03:35:03.100Z,2.60
2018-01-25T03:36:03.118Z,3.90
2018-01-25T03:37:03.136Z,3.20
2018-01-25T03:38:03.201Z,3.20
2018-01-25T03:39:03.173Z,4.10
2018-01-25T03:40:03.190Z,2.20
2018-01-25T03:41:03.204Z,4.10
2018-01-25T03:42:03.226Z,2.90
2018-01-25T03:43:03.242Z,3.40
2018-01-25T03:44:03.265Z,4.20
2018-01-25T03:45:03.280Z,3.50
2018-01-25T03:46:03.295Z,2.90
2018-01-25T03:47:03.314Z,4.00
2018-01-25T03:48:03.337Z,3.10
2018-01-25T03:49:03.353Z,3.70
2018-01-25T03:50:03.370Z,3.10
2018-01-25T03:51:03.388Z,3.80
2018-01-25T03:52:03.409Z,3.20
2018-01-25T03:53:03.427Z,4.00
2018-01-25T03:54:03.443Z,3.20
2018-01-25T03:55:03.467Z,3.70
2018-01-25T03:56:03.479Z,4.00
2018-01-25T03:57:03.497Z,3.10
2018-01-25T03:58:03.515Z,3.40
2018-01-25T03:59:03.534Z,2.60
2018-01-25T04:00:03.548Z,4.60
2018-01-25T04:01:03.569Z,4.00
2018-01-25T04:02:03.588Z,3.50
2018-01-25T04:03:03.603Z,3.30
2018-01-25T04:04:03.618Z,2.50
2018-01-25T04:05:03.638Z,3.70
2018-01-25T04:06:03.664Z,2.70
2018-01-25T04:07:03.673Z,4.00
2018-01-25T04:08:03.692Z,4.70
2018-01-25T04:09:03.711Z,3.10
2018-01-25T04:10:03.730Z,4.80
2018-01-25T04:11:03.750Z,3.10
2018-01-25T04:12:03.765Z,3.00
2018-01-25T04:13:03.791Z,3.50
2018-01-25T04:14:03.804Z,3.70
2018-01-25T04:15:03.819Z,3.50
2018-01-25T04:16:03.838Z,2.30
2018-01-25T04:17:03.856Z,4.10
2018-01-25T04:18:03.876Z,2.80
2018-01-25T04:19:03.897Z,2.50
2018-01-25T04:20:03.913Z,5.10
2018-01-25T04:21:03.930Z,3.00
2018-01-25T04:22:03.952Z,4.40
2018-01-25T04:23:03.965Z,5.20
2018-01-25T04:24:03.983Z,3.40
2018-01-25T04:25:04.000Z,2.70
2018-01-25T04:26:04.018Z,3.80
2018-01-25T04:27:04.038Z,4.00
2018-01-25T04:28:04.056Z,3.80
2018-01-25T04:29:04.074Z,2.70
2018-01-25T04:30:04.093Z,6.00
2018-01-25T04:31:04.112Z,3.60
2018-01-25T04:32:04.131Z,4.80
2018-01-25T04:33:04.145Z,4.10
2018-01-25T04:34:04.161Z,3.70
2018-01-25T04:35:04.176Z,6.20
2018-01-25T04:36:04.200Z,3.70
2018-01-25T04:37:04.217Z,3.60
2018-01-25T04:38:04.237Z,5.10
2018-01-25T04:39:04.252Z,5.20
2018-01-25T04:40:04.278Z,4.30
2018-01-25T04:41:04.288Z,5.10
2018-01-25T04:42:04.310Z,5.70
2018-01-25T04:43:04.327Z,5.80
2018-01-25T04:44:04.338Z,3.90
2018-01-25T04:45:04.357Z,5.60
2018-01-25T04:46:04.380Z,5.40
2018-01-25T04:47:04.401Z,4.20
2018-01-25T04:48:04.413Z,6.00
2018-01-25T04:49:04.439Z,5.60
2018-01-25T04:50:04.452Z,5.80
2018-01-25T04:51:04.470Z,4.70
2018-01-25T04:52:04.487Z,5.30
2018-01-25T04:53:04.505Z,6.70
2018-01-25T04:54:04.525Z,5.90
2018-01-25T04:55:04.542Z,7.70
2018-01-25T04:56:04.559Z,7.00
2018-01-25T04:57:04.578Z,8.90
2018-01-25T04:58:04.595Z,9.30
2018-01-25T04:59:04.612Z,8.50
2018-01-25T05:00:04.625Z,8.10
2018-01-25T05:01:04.641Z,10.50
2018-01-25T05:02:04.667Z,10.30
2018-01-25T05:03:04.684Z,11.70
2018-01-25T05:04:04.703Z,11.00
2018-01-25T05:05:04.720Z,10.70
2018-01-25T05:06:04.739Z,9.00
2018-01-25T05:07:04.758Z,13.50
2018-01-25T05:08:04.776Z,13.50
2018-01-25T05:09:04.794Z,17.40
2018-01-25T05:10:04.811Z,15.70
2018-01-25T05:11:04.831Z,15.80
2018-01-25T05:12:04.845Z,12.80
2018-01-25T05:13:04.862Z,13.90
2018-01-25T05:14:04.881Z,13.50
2018-01-25T05:15:04.893Z,11.80
2018-01-25T05:16:04.918Z,10.20
2018-01-25T05:17:04.934Z,9.80
2018-01-25T05:18:04.954Z,6.30
2018-01-25T05:19:04.972Z,10.60
2018-01-25T05:20:04.987Z,9.50
2018-01-25T05:21:05.010Z,9.60
2018-01-25T05:22:05.025Z,10.70
2018-01-25T05:23:05.047Z,11.10
2018-01-25T05:24:05.060Z,9.60
2018-01-25T05:25:05.080Z,12.50
2018-01-25T05:26:05.099Z,9.90
2018-01-25T05:27:05.111Z,11.00
2018-01-25T05:28:05.135Z,11.30
2018-01-25T05:29:05.151Z,8.80
2018-01-25T05:30:05.171Z,7.90
2018-01-25T05:31:05.189Z,10.70
2018-01-25T05:32:05.206Z,7.60
2018-01-25T05:33:05.226Z,8.40
2018-01-25T05:34:05.243Z,9.30
2018-01-25T05:35:05.263Z,8.40
2018-01-25T05:36:05.272Z,10.80
2018-01-25T05:37:05.297Z,8.50
2018-01-25T05:38:05.313Z,9.60
2018-01-25T05:39:05.333Z,7.40
2018-01-25T05:40:05.349Z,9.60
2018-01-25T05:41:05.370Z,7.80
2018-01-25T05:42:05.386Z,11.00
2018-01-25T05:43:05.406Z,7.10
2018-01-25T05:44:05.424Z,11.20
2018-01-25T05:45:05.441Z,6.50
2018-01-25T05:46:05.457Z,9.20
2018-01-25T05:47:05.473Z,5.10
2018-01-25T05:48:05.495Z,5.00
2018-01-25T05:49:05.513Z,6.60
2018-01-25T05:50:05.531Z,9.00
2018-01-25T05:51:05.548Z,3.90
2018-01-25T05:52:05.575Z,5.80
2018-01-25T05:53:05.588Z,7.60
2018-01-25T05:54:05.605Z,6.10
2018-01-25T05:55:05.620Z,5.40
2018-01-25T05:56:05.639Z,7.60
2018-01-25T05:57:05.658Z,7.30
2018-01-25T05:58:05.674Z,7.50
2018-01-25T05:59:05.701Z,5.10
2018-01-25T06:00:05.705Z,6.10
2018-01-25T06:01:05.735Z,6.50
2018-01-25T06:02:05.748Z,6.60
2018-01-25T06:03:05.762Z,7.20
2018-01-25T06:04:05.782Z,6.80
2018-01-25T06:05:05.802Z,7.60
2018-01-25T06:06:05.819Z,6.90
2018-01-25T06:07:05.837Z,8.20
2018-01-25T06:08:05.852Z,7.00
2018-01-25T06:09:05.882Z,9.30
2018-01-25T06:10:05.901Z,8.20
2018-01-25T06:11:05.914Z,7.40
2018-01-25T06:12:05.925Z,10.20
2018-01-25T06:13:05.947Z,9.40
2018-01-25T06:14:05.964Z,8.10
2018-01-25T06:15:05.983Z,9.10
2018-01-25T06:16:06.007Z,12.10
2018-01-25T06:17:06.016Z,10.20
2018-01-25T06:18:06.037Z,11.00
2018-01-25T06:19:06.056Z,11.30
2018-01-25T06:20:06.073Z,9.90
2018-01-25T06:21:06.088Z,13.50
2018-01-25T06:22:06.117Z,9.60
2018-01-25T06:23:06.132Z,9.10
2018-01-25T06:24:06.148Z,9.90
2018-01-25T06:25:06.166Z,9.50
2018-01-25T06:26:06.181Z,8.10
2018-01-25T06:27:06.199Z,11.00
2018-01-25T06:28:06.219Z,10.00
2018-01-25T06:29:06.237Z,8.30
2018-01-25T06:30:06.252Z,8.70
2018-01-25T06:31:06.270Z,9.40
2018-01-25T06:32:06.291Z,10.90
2018-01-25T06:33:06.309Z,11.80
2018-01-25T06:34:06.331Z,9.00
2018-01-25T06:35:06.345Z,10.50
2018-01-25T06:36:06.368Z,7.90
2018-01-25T06:37:06.389Z,7.80
2018-01-25T06:38:06.405Z,12.00
2018-01-25T06:39:06.423Z,8.70
2018-01-25T06:40:06.445Z,10.00
2018-01-25T06:41:06.460Z,11.20
2018-01-25T06:42:06.475Z,10.40
2018-01-25T06:43:06.486Z,10.70
2018-01-25T06:44:06.513Z,9.30
2018-01-25T06:45:06.523Z,9.40
2018-01-25T06:46:06.540Z,11.20
2018-01-25T06:47:06.564Z,8.80
2018-01-25T06:48:06.578Z,11.20
2018-01-25T06:49:06.596Z,7.40
2018-01-25T06:50:06.609Z,6.80
2018-01-25T06:51:06.639Z,8.90
2018-01-25T06:52:06.649Z,9.40
2018-01-25T06:53:06.666Z,8.80
2018-01-25T06:54:06.687Z,7.50
2018-01-25T06:55:06.714Z,8.10
2018-01-25T06:56:06.719Z,10.60
2018-01-25T06:57:06.749Z,7.50
2018-01-25T06:58:06.767Z,10.40
2018-01-25T06:59:06.767Z,8.50
2018-01-25T07:00:06.818Z,6.40
2018-01-25T07:01:06.807Z,9.70
2018-01-25T07:02:06.828Z,10.00
2018-01-25T07:03:06.926Z,9.10
2018-01-25T07:04:06.864Z,8.50
2018-01-25T07:05:06.891Z,10.60
2018-01-25T07:06:06.901Z,8.30
2018-01-25T07:07:06.921Z,9.40
2018-01-25T07:08:06.939Z,8.50
2018-01-25T07:09:06.951Z,8.80
2018-01-25T07:10:06.996Z,12.10
2018-01-25T07:11:07.040Z,8.70
2018-01-25T07:12:07.363Z,9.20
2018-01-25T07:13:07.029Z,9.00
2018-01-25T07:14:07.050Z,9.70
2018-01-25T07:15:07.060Z,10.50
2018-01-25T07:16:07.083Z,9.70
2018-01-25T07:17:07.137Z,8.00
2018-01-25T07:18:07.115Z,11.40
2018-01-25T07:19:07.130Z,10.90
2018-01-25T07:20:07.145Z,9.30
2018-01-25T07:21:07.171Z,8.30
2018-01-25T07:22:07.191Z,10.30
2018-01-25T07:23:07.208Z,11.60
2018-01-25T07:24:07.230Z,9.60
2018-01-25T07:25:07.237Z,10.30
2018-01-25T07:26:07.273Z,9.80
2018-01-25T07:27:07.282Z,14.20
2018-01-25T07:28:07.293Z,15.40
2018-01-25T07:29:07.308Z,13.90
2018-01-25T07:30:07.334Z,16.10
2018-01-25T07:31:07.350Z,15.10
2018-01-25T07:32:07.371Z,14.30
2018-01-25T07:33:07.380Z,15.80
2018-01-25T07:34:07.396Z,12.90
2018-01-25T07:35:07.444Z,14.00
2018-01-25T07:36:07.439Z,15.80
2018-01-25T07:37:08.358Z,11.20
2018-01-25T07:38:07.475Z,12.10
2018-01-25T07:39:07.501Z,10.60
2018-01-25T07:40:07.503Z,12.90
2018-01-25T07:41:07.578Z,13.60
2018-01-25T07:42:07.541Z,11.00
2018-01-25T07:43:07.565Z,13.40
2018-01-25T07:44:07.580Z,10.10
2018-01-25T07:45:07.591Z,11.10
2018-01-25T07:46:07.609Z,9.90
2018-01-25T07:47:07.631Z,14.70
2018-01-25T07:48:07.647Z,12.70
2018-01-25T07:49:07.663Z,14.10
2018-01-25T07:50:07.685Z,14.70
2018-01-25T07:51:07.704Z,16.40
2018-01-25T07:52:07.728Z,15.80
2018-01-25T07:53:07.742Z,16.40
2018-01-25T07:54:07.760Z,19.00
2018-01-25T07:55:07.788Z,13.80
2018-01-25T07:56:07.799Z,13.80
2018-01-25T07:57:07.816Z,11.20
2018-01-25T07:58:07.848Z,13.00
2018-01-25T07:59:07.846Z,10.80
2018-01-25T08:00:07.867Z,13.00
2018-01-25T08:01:07.885Z,11.90
2018-01-25T08:02:07.895Z,12.00
2018-01-25T08:03:07.920Z,11.40
2018-01-25T08:04:07.949Z,10.80
2018-01-25T08:05:07.970Z,11.30
2018-01-25T08:06:07.983Z,16.20
2018-01-25T08:07:07.989Z,14.90
2018-01-25T08:08:08.006Z,15.10
2018-01-25T08:09:08.030Z,18.90
2018-01-25T08:10:08.045Z,18.30
2018-01-25T08:11:08.075Z,16.40
2018-01-25T08:12:08.084Z,17.00
2018-01-25T08:13:08.108Z,26.90
2018-01-25T08:14:08.115Z,29.90
2018-01-25T08:15:08.133Z,39.40
2018-01-25T08:16:08.151Z,53.60
2018-01-25T08:17:08.181Z,63.00
2018-01-25T08:18:08.189Z,51.10
2018-01-25T08:19:08.210Z,42.30
2018-01-25T08:20:08.232Z,40.60
2018-01-25T08:21:08.250Z,28.90
2018-01-25T08:22:08.264Z,24.60
2018-01-25T08:23:08.276Z,20.60
2018-01-25T08:24:08.299Z,17.50
2018-01-25T08:25:08.316Z,14.40
2018-01-25T08:26:08.331Z,16.70
2018-01-25T08:27:08.373Z,14.30
2018-01-25T08:28:08.371Z,18.70
2018-01-25T08:29:08.392Z,13.70
2018-01-25T08:30:08.400Z,15.60
2018-01-25T08:31:08.421Z,16.00
2018-01-25T08:32:08.442Z,17.00
2018-01-25T08:33:08.460Z,13.20
2018-01-25T08:34:08.480Z,12.90
2018-01-25T08:35:08.520Z,12.70
2018-01-25T08:36:08.524Z,14.90
2018-01-25T08:37:08.538Z,14.70
2018-01-25T08:38:08.550Z,11.70
2018-01-25T08:39:08.602Z,11.40
2018-01-25T08:40:08.593Z,9.40
2018-01-25T08:41:08.602Z,11.20
2018-01-25T08:42:08.634Z,9.20
2018-01-25T08:43:08.639Z,10.00
2018-01-25T08:44:08.657Z,8.10
2018-01-25T08:45:08.699Z,10.80
2018-01-25T08:46:08.701Z,7.70
2018-01-25T08:47:08.728Z,11.10
2018-01-25T08:48:08.726Z,12.80
2018-01-25T08:49:08.752Z,10.70
2018-01-25T08:50:08.767Z,12.80
2018-01-25T08:51:08.800Z,14.10
2018-01-25T08:52:08.802Z,14.70
2018-01-25T08:53:08.821Z,15.10
2018-01-25T08:54:08.842Z,12.20
2018-01-25T08:55:08.858Z,14.20
2018-01-25T08:56:08.881Z,11.70
2018-01-25T08:57:08.898Z,13.00
2018-01-25T08:58:08.915Z,11.50
2018-01-25T08:59:08.953Z,14.20
2018-01-25T09:00:08.954Z,12.40
2018-01-25T09:01:08.976Z,10.70
2018-01-25T09:02:08.997Z,12.50
2018-01-25T09:03:09.013Z,12.20
2018-01-25T09:04:09.026Z,17.70
2018-01-25T09:05:09.050Z,17.40
2018-01-25T09:06:09.069Z,18.60
2018-01-25T09:07:09.856Z,16.40
2018-01-25T09:08:09.153Z,18.90
2018-01-25T09:09:09.122Z,15.30
2018-01-25T09:10:09.134Z,13.30
2018-01-25T09:11:09.178Z,15.30
2018-01-25T09:12:09.242Z,18.90
2018-01-25T09:13:09.234Z,16.90
2018-01-25T09:14:09.289Z,13.70
2018-01-25T09:15:09.239Z,16.70
2018-01-25T09:16:09.249Z,14.30
2018-01-25T09:17:09.265Z,12.00
2018-01-25T09:18:09.285Z,13.00
2018-01-25T09:19:09.643Z,14.40
2018-01-25T09:20:09.335Z,12.80
2018-01-25T09:21:09.343Z,12.90
2018-01-25T09:22:09.388Z,15.20
2018-01-25T09:23:09.379Z,13.80
2018-01-25T09:24:09.392Z,11.70
2018-01-25T09:25:09.420Z,13.70
2018-01-25T09:26:09.435Z,11.20
2018-01-25T09:27:09.448Z,9.20
2018-01-25T09:28:09.478Z,8.30
2018-01-25T09:29:09.493Z,12.40
2018-01-25T09:30:09.550Z,12.40
2018-01-25T09:31:09.545Z,9.40
2018-01-25T09:32:09.556Z,10.30
2018-01-25T09:33:09.605Z,9.40
2018-01-25T09:34:09.591Z,11.00
2018-01-25T09:35:09.604Z,10.60
2018-01-25T09:36:09.626Z,10.00
2018-01-25T09:37:09.644Z,10.20
2018-01-25T09:38:09.654Z,14.10
2018-01-25T09:39:09.679Z,12.40
2018-01-25T09:40:09.735Z,11.40
2018-01-25T09:41:09.719Z,12.50
2018-01-25T09:42:09.739Z,13.10
2018-01-25T09:43:09.759Z,9.90
2018-01-25T09:44:09.776Z,11.50
2018-01-25T09:45:09.787Z,9.50
2018-01-25T09:46:10.363Z,12.30
2018-01-25T09:47:09.830Z,10.10
2018-01-25T09:48:10.361Z,11.50
2018-01-25T09:49:09.876Z,11.80
2018-01-25T09:50:09.910Z,11.90
2018-01-25T09:51:09.908Z,10.90
2018-01-25T09:52:09.919Z,13.80
2018-01-25T09:53:09.943Z,11.10
2018-01-25T09:54:09.956Z,11.20
2018-01-25T09:55:09.972Z,12.00
2018-01-25T09:56:10.005Z,9.70
2018-01-25T09:57:10.020Z,13.60
2018-01-25T09:58:10.039Z,15.30
2018-01-25T09:59:10.060Z,13.10
2018-01-25T10:00:10.071Z,13.70
2018-01-25T10:01:10.098Z,12.60
2018-01-25T10:02:10.115Z,10.80
2018-01-25T10:03:10.133Z,12.00
2018-01-25T10:04:10.192Z,12.50
2018-01-25T10:05:10.166Z,10.80
2018-01-25T10:06:10.184Z,13.90
2018-01-25T10:07:10.213Z,11.00
2018-01-25T10:08:10.221Z,11.80
2018-01-25T10:09:10.242Z,14.50
2018-01-25T10:10:10.264Z,13.70
2018-01-25T10:11:10.285Z,14.10
2018-01-25T10:12:10.298Z,15.20
2018-01-25T10:13:10.317Z,13.70
2018-01-25T10:14:10.341Z,11.70
2018-01-25T10:15:10.363Z,10.70
2018-01-25T10:16:10.381Z,11.10
2018-01-25T10:17:10.401Z,10.20
2018-01-25T10:18:10.415Z,12.80
2018-01-25T10:19:10.431Z,9.50
2018-01-25T10:20:10.446Z,13.80
2018-01-25T10:21:10.533Z,10.30
2018-01-25T10:22:10.497Z,13.00
2018-01-25T10:23:10.517Z,13.80
2018-01-25T10:24:10.530Z,10.70
2018-01-25T10:25:10.553Z,11.60
2018-01-25T10:26:10.566Z,12.60
2018-01-25T10:27:10.593Z,16.70
2018-01-25T10:28:10.609Z,12.90
2018-01-25T10:29:10.644Z,13.20
2018-01-25T10:30:10.650Z,10.40
2018-01-25T10:31:10.679Z,10.80
2018-01-25T10:32:10.681Z,11.10
2018-01-25T10:33:10.701Z,11.90
2018-01-25T10:34:10.720Z,12.80
2018-01-25T10:35:10.743Z,10.60
2018-01-25T10:36:10.765Z,11.30
2018-01-25T10:37:10.777Z,10.60
2018-01-25T10:38:10.804Z,12.60
2018-01-25T10:39:10.824Z,10.30
2018-01-25T10:40:10.844Z,12.00
2018-01-25T10:41:10.855Z,13.30
2018-01-25T10:42:10.877Z,13.60
2018-01-25T10:43:10.892Z,10.10
2018-01-25T10:44:10.915Z,12.80
2018-01-25T10:45:10.933Z,9.80
2018-01-25T10:46:10.960Z,13.30
2018-01-25T10:47:10.972Z,11.70
2018-01-25T10:48:10.993Z,11.50
2018-01-25T10:49:11.016Z,15.30
2018-01-25T10:50:11.032Z,12.10
2018-01-25T10:51:11.047Z,12.00
2018-01-25T10:52:11.071Z,14.10
2018-01-25T10:53:11.092Z,13.10
2018-01-25T10:54:11.112Z,8.70
2018-01-25T10:55:11.131Z,13.70
2018-01-25T10:56:11.149Z,11.50
2018-01-25T10:57:11.168Z,12.60
2018-01-25T10:58:11.187Z,10.20
2018-01-25T10:59:11.203Z,11.70
2018-01-25T11:00:11.227Z,10.70
2018-01-25T11:01:11.246Z,11.10
2018-01-25T11:02:11.272Z,10.90
2018-01-25T11:03:11.281Z,11.20
2018-01-25T11:04:11.314Z,9.10
2018-01-25T11:05:11.325Z,10.90
2018-01-25T11:06:11.343Z,11.00
2018-01-25T11:07:11.374Z,10.80
2018-01-25T11:08:11.385Z,11.20
2018-01-25T11:09:11.404Z,8.40
2018-01-25T11:10:11.424Z,12.60
2018-01-25T11:11:11.440Z,15.00
2018-01-25T11:12:11.465Z,11.50
2018-01-25T11:13:11.483Z,11.50
2018-01-25T11:14:11.506Z,11.40
2018-01-25T11:15:11.581Z,12.60
2018-01-25T11:16:11.542Z,15.10
2018-01-25T11:17:11.565Z,10.00
2018-01-25T11:18:11.590Z,8.40
2018-01-25T11:19:11.601Z,13.40
2018-01-25T11:20:11.621Z,12.80
2018-01-25T11:21:11.642Z,12.80
2018-01-25T11:22:11.662Z,11.10
2018-01-25T11:23:11.686Z,10.60
2018-01-25T11:24:11.700Z,12.40
2018-01-25T11:25:11.721Z,12.70
2018-01-25T11:26:11.740Z,14.20
2018-01-25T11:27:11.760Z,13.10
2018-01-25T11:28:11.788Z,15.50
2018-01-25T11:29:11.801Z,13.00
2018-01-25T11:30:11.819Z,10.00
2018-01-25T11:31:11.846Z,8.90
2018-01-25T11:34:41.439Z,12.30
